Time;durP1;ratioP1;P1;durP2;ratioP2;P2;SDS_P1;SDS_P2;PMS_P1;PMS_P2;Temp;Humidity;BMP_temperature;BMP_pressure;BME280_temperature;BME280_humidity;BME280_pressure;Samples;Min_cycle;Max_cycle;Signal;HPM_P1;HPM_P2
2022/09/12 00:00:47;;;;;;;16.08;9.30;;;;;;;;;;4934068;29;20027;-89
2022/09/12 00:03:13;;;;;;;19.55;10.45;;;;;;;;;;4905970;29;20119;-89
2022/09/12 00:05:43;;;;;;;13.77;9.45;;;;;;;;;;4915307;29;20035;-89
2022/09/12 00:08:09;;;;;;;20.33;8.93;;;;;;;;;;4913740;29;20028;-89
2022/09/12 00:10:39;;;;;;;16.52;11.13;;;;;;;;;;4914550;29;20032;-89
2022/09/12 00:13:06;;;;;;;18.42;10.95;;;;;;;;;;4920120;29;20031;-89
2022/09/12 00:15:32;;;;;;;20.23;10.68;;;;;;;;;;4914648;29;20039;-89
2022/09/12 00:17:58;;;;;;;14.80;10.75;;;;;;;;;;4916333;29;20090;-89
2022/09/12 00:20:25;;;;;;;18.52;10.65;;;;;;;;;;4917107;29;20059;-89
2022/09/12 00:22:51;;;;;;;23.13;10.40;;;;;;;;;;4913890;29;20036;-89
2022/09/12 00:25:17;;;;;;;18.00;10.38;;;;;;;;;;4917890;29;20031;-89
2022/09/12 00:27:43;;;;;;;16.52;10.20;;;;;;;;;;4933333;29;20031;-89
2022/09/12 00:30:09;;;;;;;17.63;10.38;;;;;;;;;;4918981;29;20201;-89
2022/09/12 00:32:35;;;;;;;17.10;10.82;;;;;;;;;;4913287;29;20470;-89
2022/09/12 00:35:02;;;;;;;17.83;10.70;;;;;;;;;;4901499;29;20455;-89
2022/09/12 00:37:28;;;;;;;19.67;11.48;;;;;;;;;;4913931;29;20051;-89
2022/09/12 00:39:54;;;;;;;23.42;11.15;;;;;;;;;;4901977;29;20055;-89
2022/09/12 00:42:20;;;;;;;19.65;11.32;;;;;;;;;;4917064;29;20031;-89
2022/09/12 00:44:47;;;;;;;21.63;10.95;;;;;;;;;;4930911;28;20098;-89
2022/09/12 00:47:17;;;;;;;17.75;11.20;;;;;;;;;;4949424;29;20028;-89
2022/09/12 00:50:12;;;;;;;23.60;11.48;;;;;;;;;;4933715;28;20066;-89
2022/09/12 00:52:44;;;;;;;21.65;11.52;;;;;;;;;;4919599;29;20297;-89
2022/09/12 00:55:24;;;;;;;19.77;11.20;;;;;;;;;;4949822;28;20106;-89
2022/09/12 00:57:56;;;;;;;21.88;12.18;;;;;;;;;;4930677;29;20087;-89
2022/09/12 01:00:24;;;;;;;22.55;12.27;;;;;;;;;;4936573;29;20031;-89
2022/09/12 01:02:51;;;;;;;21.25;11.02;;;;;;;;;;4933421;29;20063;-89
2022/09/12 01:05:18;;;;;;;20.83;11.15;;;;;;;;;;4934725;29;20078;-89
2022/09/12 01:07:47;;;;;;;22.13;11.90;;;;;;;;;;4924005;28;20122;-89
2022/09/12 01:10:13;;;;;;;18.25;11.52;;;;;;;;;;4917280;29;20400;-89
2022/09/12 01:12:40;;;;;;;19.92;12.07;;;;;;;;;;4950312;29;20091;-89
2022/09/12 01:15:07;;;;;;;18.75;11.90;;;;;;;;;;4933011;29;20521;-89
2022/09/12 01:17:53;;;;;;;17.58;11.13;;;;;;;;;;4923052;28;20664;-88
2022/09/12 01:20:38;;;;;;;18.50;10.88;;;;;;;;;;4924750;29;20328;-89
2022/09/12 01:23:20;;;;;;;18.40;12.25;;;;;;;;;;4933042;29;20027;-88
2022/09/12 01:25:57;;;;;;;28.50;11.98;;;;;;;;;;4949047;28;20122;-89
2022/09/12 01:28:29;;;;;;;20.90;11.95;;;;;;;;;;4934892;29;20023;-89
2022/09/12 01:31:03;;;;;;;16.63;11.30;;;;;;;;;;4932811;29;20033;-89
2022/09/12 01:33:29;;;;;;;17.98;11.32;;;;;;;;;;4932257;29;20240;-89
2022/09/12 01:36:04;;;;;;;16.80;11.20;;;;;;;;;;4940700;28;20122;-89
2022/09/12 01:38:36;;;;;;;27.20;12.13;;;;;;;;;;4948681;28;20050;-89
2022/09/12 01:41:17;;;;;;;19.73;12.40;;;;;;;;;;4948313;28;20067;-89
2022/09/12 01:43:49;;;;;;;25.55;12.55;;;;;;;;;;4943967;28;20228;-89
2022/09/12 01:46:17;;;;;;;21.92;13.52;;;;;;;;;;4933559;29;20097;-89
2022/09/12 01:48:43;;;;;;;22.85;14.90;;;;;;;;;;4930366;29;20039;-89
2022/09/12 01:51:25;;;;;;;25.25;15.48;;;;;;;;;;4933933;29;20473;-89
2022/09/12 01:53:58;;;;;;;23.77;14.60;;;;;;;;;;4932938;29;20078;-89
2022/09/12 01:56:25;;;;;;;24.33;15.05;;;;;;;;;;4944996;28;20049;-89
2022/09/12 01:58:55;;;;;;;27.48;14.68;;;;;;;;;;4947862;28;20023;-89
2022/09/12 02:01:30;;;;;;;28.55;14.27;;;;;;;;;;4946028;29;20122;-89
2022/09/12 02:03:59;;;;;;;21.17;13.43;;;;;;;;;;4928213;29;20054;-89
2022/09/12 02:06:27;;;;;;;25.23;14.20;;;;;;;;;;4931309;29;20019;-89
2022/09/12 02:08:55;;;;;;;21.85;14.10;;;;;;;;;;4946194;28;20026;-89
2022/09/12 02:11:22;;;;;;;38.35;13.93;;;;;;;;;;4939172;29;20027;-89
2022/09/12 02:13:56;;;;;;;22.17;14.05;;;;;;;;;;4936674;28;20545;-89
2022/09/12 02:16:31;;;;;;;22.48;13.95;;;;;;;;;;4953446;28;20046;-89
2022/09/12 02:18:58;;;;;;;25.48;14.18;;;;;;;;;;4951898;29;20046;-89
2022/09/12 02:21:25;;;;;;;24.60;13.70;;;;;;;;;;4938488;29;20031;-89
2022/09/12 02:23:55;;;;;;;26.15;15.18;;;;;;;;;;4920969;28;20500;-89
2022/09/12 02:26:25;;;;;;;25.42;15.73;;;;;;;;;;4941817;29;20019;-89
2022/09/12 02:28:51;;;;;;;26.60;15.40;;;;;;;;;;4939923;28;20078;-89
2022/09/12 02:31:20;;;;;;;24.88;15.75;;;;;;;;;;4921893;29;20038;-89
2022/09/12 02:33:57;;;;;;;25.60;16.95;;;;;;;;;;4952448;28;20583;-89
2022/09/12 02:36:32;;;;;;;26.70;16.40;;;;;;;;;;4956099;28;20042;-89
2022/09/12 02:38:59;;;;;;;26.52;15.57;;;;;;;;;;4954655;28;20067;-89
2022/09/12 02:41:25;;;;;;;26.35;15.23;;;;;;;;;;4955769;28;20023;-90
2022/09/12 02:44:12;;;;;;;23.63;15.00;;;;;;;;;;4928806;28;20071;-90
2022/09/12 02:46:42;;;;;;;28.27;16.42;;;;;;;;;;4917619;29;20035;-89
2022/09/12 02:49:08;;;;;;;27.13;16.38;;;;;;;;;;4898727;29;20043;-90
2022/09/12 02:51:34;;;;;;;28.50;17.00;;;;;;;;;;4905825;29;20039;-89
2022/09/12 02:54:01;;;;;;;32.20;16.98;;;;;;;;;;4903480;29;20028;-89
2022/09/12 02:56:29;;;;;;;28.17;17.55;;;;;;;;;;4915425;29;20043;-89
2022/09/12 02:58:56;;;;;;;26.77;17.45;;;;;;;;;;4917172;29;20035;-89
2022/09/12 03:01:46;;;;;;;32.42;19.25;;;;;;;;;;4898151;29;20052;-89
2022/09/12 03:04:35;;;;;;;29.00;17.75;;;;;;;;;;4882901;29;20039;-89
2022/09/12 03:07:04;;;;;;;32.13;18.52;;;;;;;;;;4917003;29;20583;-89
2022/09/12 03:09:30;;;;;;;31.73;19.73;;;;;;;;;;4916719;29;20092;-89
2022/09/12 03:11:59;;;;;;;30.90;19.80;;;;;;;;;;4911890;29;20071;-89
2022/09/12 03:14:44;;;;;;;30.25;18.63;;;;;;;;;;4900793;29;20028;-89
2022/09/12 03:17:19;;;;;;;34.70;20.02;;;;;;;;;;4915472;29;20039;-89
2022/09/12 03:19:58;;;;;;;43.55;20.58;;;;;;;;;;4895958;29;20024;-89
2022/09/12 03:22:27;;;;;;;39.60;22.13;;;;;;;;;;4895978;29;20028;-89
2022/09/12 03:25:12;;;;;;;36.55;19.73;;;;;;;;;;4909690;29;20035;-89
2022/09/12 03:27:45;;;;;;;30.58;18.95;;;;;;;;;;4908939;29;20040;-89
2022/09/12 03:30:11;;;;;;;28.02;19.45;;;;;;;;;;4911906;29;20043;-89
2022/09/12 03:32:45;;;;;;;37.55;21.08;;;;;;;;;;4893142;29;20656;-89
2022/09/12 03:35:12;;;;;;;45.92;21.33;;;;;;;;;;4913862;29;20036;-89
2022/09/12 03:37:38;;;;;;;35.20;19.80;;;;;;;;;;4911567;29;20127;-89
2022/09/12 03:40:05;;;;;;;33.33;19.50;;;;;;;;;;4884396;29;20488;-89
2022/09/12 03:42:31;;;;;;;38.40;20.85;;;;;;;;;;4913823;29;20024;-89
2022/09/12 03:44:57;;;;;;;36.95;21.75;;;;;;;;;;4918018;28;20051;-89
2022/09/12 03:47:23;;;;;;;42.72;21.95;;;;;;;;;;4929732;29;20522;-89
2022/09/12 03:49:51;;;;;;;36.13;21.30;;;;;;;;;;4931136;29;20032;-89
2022/09/12 03:52:17;;;;;;;34.90;20.55;;;;;;;;;;4928605;29;20055;-89
2022/09/12 03:54:43;;;;;;;32.78;20.65;;;;;;;;;;4930979;29;20031;-89
2022/09/12 03:57:09;;;;;;;39.72;21.80;;;;;;;;;;4929360;29;20107;-89
2022/09/12 03:59:35;;;;;;;41.30;21.60;;;;;;;;;;4914559;29;20130;-89
2022/09/12 04:02:01;;;;;;;38.58;22.27;;;;;;;;;;4931637;29;20042;-90
2022/09/12 04:04:27;;;;;;;35.60;20.80;;;;;;;;;;4929109;29;20042;-89
2022/09/12 04:06:54;;;;;;;32.65;20.13;;;;;;;;;;4927042;29;20028;-89
2022/09/12 04:09:20;;;;;;;56.08;17.80;;;;;;;;;;4929283;29;20543;-89
2022/09/12 04:11:46;;;;;;;32.17;17.60;;;;;;;;;;4927891;29;20528;-89
2022/09/12 04:14:12;;;;;;;27.35;16.55;;;;;;;;;;4944966;28;20043;-89
2022/09/12 04:16:37;;;;;;;29.05;16.70;;;;;;;;;;4913487;29;20031;-89
2022/09/12 04:19:03;;;;;;;32.78;17.10;;;;;;;;;;4931333;29;20294;-89
2022/09/12 04:21:30;;;;;;;31.50;18.15;;;;;;;;;;4929939;29;20126;-89
2022/09/12 04:23:56;;;;;;;30.48;17.73;;;;;;;;;;4928597;29;20086;-90
2022/09/12 04:26:22;;;;;;;34.20;19.40;;;;;;;;;;4927256;29;20031;-89
2022/09/12 04:28:52;;;;;;;31.95;18.50;;;;;;;;;;4930124;29;20025;-89
2022/09/12 04:31:21;;;;;;;34.15;20.38;;;;;;;;;;4928685;29;20091;-89
2022/09/12 04:33:47;;;;;;;33.95;18.58;;;;;;;;;;4929303;29;20100;-89
2022/09/12 04:36:15;;;;;;;31.35;19.70;;;;;;;;;;4931481;29;20015;-89
2022/09/12 04:38:42;;;;;;;34.30;20.05;;;;;;;;;;4926484;29;20122;-90
2022/09/12 04:41:11;;;;;;;32.47;19.23;;;;;;;;;;4928602;29;20036;-89
2022/09/12 04:43:37;;;;;;;34.22;19.10;;;;;;;;;;4928190;28;20391;-89
2022/09/12 04:46:07;;;;;;;38.60;20.88;;;;;;;;;;4931917;29;20035;-89
2022/09/12 04:48:33;;;;;;;44.78;20.85;;;;;;;;;;4946583;28;20031;-89
2022/09/12 04:51:10;;;;;;;39.83;21.67;;;;;;;;;;4931786;29;20530;-89
2022/09/12 04:53:36;;;;;;;36.13;20.48;;;;;;;;;;4946833;28;20082;-89
2022/09/12 04:56:04;;;;;;;39.63;22.17;;;;;;;;;;4934216;29;20031;-89
2022/09/12 04:58:32;;;;;;;39.55;22.85;;;;;;;;;;4931636;28;20039;-89
2022/09/12 05:01:11;;;;;;;39.83;22.20;;;;;;;;;;4934712;29;20039;-89
2022/09/12 05:03:38;;;;;;;43.97;23.55;;;;;;;;;;4947953;28;20634;-89
2022/09/12 05:06:09;;;;;;;51.90;24.33;;;;;;;;;;4933064;29;20025;-89
2022/09/12 05:08:35;;;;;;;45.80;23.38;;;;;;;;;;4934257;29;20027;-89
2022/09/12 05:11:03;;;;;;;44.55;23.15;;;;;;;;;;4917163;29;20059;-89
2022/09/12 05:13:29;;;;;;;48.08;24.02;;;;;;;;;;4932668;29;20023;-90
2022/09/12 05:15:56;;;;;;;48.42;25.52;;;;;;;;;;4934802;29;20210;-89
2022/09/12 05:18:22;;;;;;;46.25;23.33;;;;;;;;;;4933708;29;20027;-89
2022/09/12 05:20:48;;;;;;;51.03;24.20;;;;;;;;;;4950098;28;20051;-89
2022/09/12 05:23:14;;;;;;;42.38;23.65;;;;;;;;;;4929038;29;20035;-89
2022/09/12 05:25:47;;;;;;;54.63;26.02;;;;;;;;;;4914126;29;20530;-89
2022/09/12 05:28:13;;;;;;;54.65;26.63;;;;;;;;;;4948363;28;20031;-90
2022/09/12 05:30:39;;;;;;;50.50;24.25;;;;;;;;;;4930328;29;20483;-89
2022/09/12 05:33:05;;;;;;;46.22;24.13;;;;;;;;;;4931006;29;20138;-89
2022/09/12 05:35:32;;;;;;;55.13;25.52;;;;;;;;;;4913318;29;20466;-89
2022/09/12 05:37:58;;;;;;;52.72;24.83;;;;;;;;;;4917330;29;20035;-89
2022/09/12 05:40:24;;;;;;;46.65;24.88;;;;;;;;;;4930871;29;20031;-89
2022/09/12 05:42:50;;;;;;;48.70;25.80;;;;;;;;;;4915952;28;20027;-89
2022/09/12 05:45:16;;;;;;;48.22;24.25;;;;;;;;;;4932653;28;20070;-89
2022/09/12 05:47:42;;;;;;;50.88;25.75;;;;;;;;;;4932174;29;20032;-89
2022/09/12 05:50:10;;;;;;;45.50;24.30;;;;;;;;;;4930676;29;20034;-89
2022/09/12 05:52:39;;;;;;;50.00;25.10;;;;;;;;;;4933608;28;20027;-89
2022/09/12 05:55:05;;;;;;;49.47;25.13;;;;;;;;;;4930020;29;20090;-89
2022/09/12 05:57:32;;;;;;;50.78;25.70;;;;;;;;;;4916609;28;20090;-89
2022/09/12 05:59:58;;;;;;;53.38;26.58;;;;;;;;;;4917989;29;20402;-89
2022/09/12 06:02:25;;;;;;;56.42;28.30;;;;;;;;;;4947606;28;20094;-89
2022/09/12 06:04:51;;;;;;;60.22;31.33;;;;;;;;;;4948233;28;20031;-89
2022/09/12 06:07:17;;;;;;;57.08;30.58;;;;;;;;;;4916955;29;20034;-89
2022/09/12 06:09:43;;;;;;;54.20;28.50;;;;;;;;;;4917018;29;20495;-89
2022/09/12 06:12:09;;;;;;;51.95;27.65;;;;;;;;;;4947792;28;20399;-89
2022/09/12 06:14:35;;;;;;;57.63;30.63;;;;;;;;;;4948590;28;20086;-89
2022/09/12 06:17:01;;;;;;;60.85;31.60;;;;;;;;;;4917526;29;20510;-89
2022/09/12 06:19:27;;;;;;;56.80;27.70;;;;;;;;;;4929392;29;20169;-89
2022/09/12 06:21:54;;;;;;;53.63;27.40;;;;;;;;;;4934071;29;20126;-89
2022/09/12 06:24:21;;;;;;;49.05;26.10;;;;;;;;;;4931330;29;20046;-89
2022/09/12 06:26:47;;;;;;;51.00;26.15;;;;;;;;;;4930732;28;20046;-89
2022/09/12 06:29:14;;;;;;;47.90;25.58;;;;;;;;;;4918455;29;20035;-90
2022/09/12 06:31:41;;;;;;;49.85;25.05;;;;;;;;;;4947927;28;20034;-89
2022/09/12 06:34:08;;;;;;;46.00;23.67;;;;;;;;;;4928936;29;20330;-89
2022/09/12 06:36:42;;;;;;;45.20;24.83;;;;;;;;;;4931376;29;20066;-89
2022/09/12 06:39:10;;;;;;;43.72;23.25;;;;;;;;;;4947505;28;20509;-89
2022/09/12 06:41:36;;;;;;;48.05;24.40;;;;;;;;;;4948649;28;20031;-89
2022/09/12 06:44:02;;;;;;;45.10;23.42;;;;;;;;;;4932163;28;20414;-89
2022/09/12 06:46:29;;;;;;;49.85;23.85;;;;;;;;;;4931963;29;20034;-89
2022/09/12 06:48:56;;;;;;;42.95;22.90;;;;;;;;;;4915897;29;20063;-89
2022/09/12 06:51:22;;;;;;;43.97;24.40;;;;;;;;;;4949231;28;20372;-89
2022/09/12 06:53:49;;;;;;;45.92;24.98;;;;;;;;;;4915208;29;20668;-89
2022/09/12 06:56:17;;;;;;;49.70;25.75;;;;;;;;;;4939130;28;20395;-89
2022/09/12 06:58:43;;;;;;;49.72;25.95;;;;;;;;;;4934899;29;20155;-89
2022/09/12 07:01:14;;;;;;;51.85;24.83;;;;;;;;;;4951028;28;20122;-89
2022/09/12 07:03:41;;;;;;;51.70;25.38;;;;;;;;;;4932233;29;20031;-89
2022/09/12 07:06:11;;;;;;;47.30;24.88;;;;;;;;;;4924845;29;20039;-89
2022/09/12 07:08:38;;;;;;;49.22;26.77;;;;;;;;;;4949078;28;20038;-89
2022/09/12 07:11:11;;;;;;;60.22;26.42;;;;;;;;;;4935530;29;20086;-89
2022/09/12 07:13:38;;;;;;;58.92;26.42;;;;;;;;;;4949793;28;20031;-89
2022/09/12 07:16:04;;;;;;;60.30;28.10;;;;;;;;;;4948981;28;20110;-89
2022/09/12 07:18:31;;;;;;;59.90;28.58;;;;;;;;;;4951328;28;20215;-89
2022/09/12 07:21:00;;;;;;;54.92;28.42;;;;;;;;;;4933957;28;20043;-89
2022/09/12 07:23:26;;;;;;;63.10;28.77;;;;;;;;;;4948236;28;20031;-89
2022/09/12 07:25:53;;;;;;;61.65;29.75;;;;;;;;;;4922966;28;20477;-89
2022/09/12 07:28:19;;;;;;;62.03;28.77;;;;;;;;;;4935699;29;20027;-89
2022/09/12 07:30:45;;;;;;;56.38;27.88;;;;;;;;;;4933343;28;20119;-89
2022/09/12 07:33:11;;;;;;;51.30;27.67;;;;;;;;;;4933058;29;20122;-90
2022/09/12 07:35:37;;;;;;;62.40;29.40;;;;;;;;;;4918000;28;20086;-89
2022/09/12 07:38:03;;;;;;;61.13;29.27;;;;;;;;;;4925565;29;20039;-89
2022/09/12 07:40:36;;;;;;;59.28;30.63;;;;;;;;;;4917943;29;20063;-89
2022/09/12 07:43:02;;;;;;;53.13;27.95;;;;;;;;;;4925038;29;20407;-89
2022/09/12 07:45:28;;;;;;;57.92;29.17;;;;;;;;;;4917223;28;20055;-90
2022/09/12 07:47:54;;;;;;;59.17;29.88;;;;;;;;;;4896321;29;20024;-89
2022/09/12 07:50:20;;;;;;;59.13;29.27;;;;;;;;;;4893322;29;20056;-89
2022/09/12 07:52:46;;;;;;;58.30;29.63;;;;;;;;;;4911059;29;20035;-89
2022/09/12 07:55:13;;;;;;;55.45;28.55;;;;;;;;;;4893389;29;20025;-89
2022/09/12 07:57:39;;;;;;;58.92;30.08;;;;;;;;;;4913836;29;20024;-89
2022/09/12 08:00:08;;;;;;;56.45;27.38;;;;;;;;;;4896800;29;20049;-89
2022/09/12 08:02:34;;;;;;;54.20;27.58;;;;;;;;;;4892503;29;20028;-89
2022/09/12 08:05:01;;;;;;;56.67;28.20;;;;;;;;;;4915169;29;20675;-89
2022/09/12 08:07:27;;;;;;;54.78;28.48;;;;;;;;;;4888523;29;20028;-90
2022/09/12 08:09:53;;;;;;;55.50;27.52;;;;;;;;;;4895553;29;20039;-90
2022/09/12 08:12:19;;;;;;;54.13;29.98;;;;;;;;;;4879339;29;20043;-90
2022/09/12 08:14:45;;;;;;;58.55;29.52;;;;;;;;;;4878697;29;20139;-90
2022/09/12 08:17:13;;;;;;;58.55;28.80;;;;;;;;;;4902623;29;20036;-90
2022/09/12 08:19:39;;;;;;;63.20;31.45;;;;;;;;;;4896952;29;20103;-89
2022/09/12 08:22:05;;;;;;;63.88;32.25;;;;;;;;;;4897840;29;20060;-90
2022/09/12 08:24:31;;;;;;;63.25;32.15;;;;;;;;;;4906638;29;20039;-89
2022/09/12 08:26:57;;;;;;;62.50;30.88;;;;;;;;;;4911824;29;20052;-89
2022/09/12 08:29:23;;;;;;;58.75;29.42;;;;;;;;;;4889717;29;20400;-90
2022/09/12 08:31:56;;;;;;;57.13;29.45;;;;;;;;;;4913916;29;20036;-89
2022/09/12 08:34:23;;;;;;;62.55;29.63;;;;;;;;;;4892641;29;20044;-89
2022/09/12 08:36:50;;;;;;;53.95;26.27;;;;;;;;;;4894940;29;20036;-89
2022/09/12 08:39:16;;;;;;;53.15;26.25;;;;;;;;;;4896647;29;20527;-89
2022/09/12 08:41:50;;;;;;;48.55;25.52;;;;;;;;;;4911910;29;20036;-89
2022/09/12 08:44:35;;;;;;;45.85;23.52;;;;;;;;;;4917059;28;20055;-89
2022/09/12 08:47:07;;;;;;;49.05;24.75;;;;;;;;;;4914030;29;20036;-90
2022/09/12 08:49:55;;;;;;;48.50;24.25;;;;;;;;;;4939095;29;20123;-89
2022/09/12 08:52:42;;;;;;;40.03;22.05;;;;;;;;;;4928586;29;20038;-90
2022/09/12 08:55:25;;;;;;;43.58;24.25;;;;;;;;;;4877196;29;20506;-90
2022/09/12 08:57:52;;;;;;;49.35;23.83;;;;;;;;;;4932310;29;20036;-90
2022/09/12 09:00:19;;;;;;;41.88;23.25;;;;;;;;;;4914199;29;20174;-89
2022/09/12 09:02:53;;;;;;;46.95;24.40;;;;;;;;;;4911331;29;20070;-89
2022/09/12 09:05:38;;;;;;;46.42;22.42;;;;;;;;;;4905226;29;20028;-90
2022/09/12 09:08:04;;;;;;;40.17;22.00;;;;;;;;;;4908106;29;20074;-90
2022/09/12 09:10:40;;;;;;;43.65;23.20;;;;;;;;;;4908309;29;20040;-88
2022/09/12 09:13:05;;;;;;;;;;;;;;;;;;4922502;29;20507;-89
2022/09/12 09:15:39;;;;;;;43.13;22.58;;;;;;;;;;4926536;29;19907;-88
2022/09/12 09:18:11;;;;;;;41.35;23.70;;;;;;;;;;4910640;29;20034;-89
2022/09/12 09:20:40;;;;;;;42.55;22.40;;;;;;;;;;4919706;29;20719;-89
2022/09/12 09:23:16;;;;;;;43.45;22.70;;;;;;;;;;4907708;29;20047;-88
2022/09/12 09:25:42;;;;;;;44.53;22.02;;;;;;;;;;4923975;29;20032;-87
2022/09/12 09:28:35;;;;;;;47.50;23.40;;;;;;;;;;4923136;29;20031;-88
2022/09/12 09:31:01;;;;;;;47.97;24.27;;;;;;;;;;4907810;29;20042;-88
2022/09/12 09:33:30;;;;;;;44.55;21.95;;;;;;;;;;4909025;29;20034;-91
2022/09/12 09:36:02;;;;;;;42.60;22.23;;;;;;;;;;4914716;29;20063;-90
2022/09/12 09:38:40;;;;;;;44.30;22.40;;;;;;;;;;4908036;29;20957;-90
2022/09/12 09:41:14;;;;;;;49.63;23.52;;;;;;;;;;4924836;29;20038;-90
2022/09/12 09:43:40;;;;;;;40.80;22.00;;;;;;;;;;4915295;29;20055;-90
2022/09/12 09:46:06;;;;;;;43.33;21.77;;;;;;;;;;4937730;28;20074;-90
2022/09/12 09:48:34;;;;;;;40.83;20.45;;;;;;;;;;4931985;28;20023;-90
2022/09/12 09:51:02;;;;;;;37.45;21.05;;;;;;;;;;4933716;29;21025;-90
2022/09/12 09:53:48;;;;;;;37.25;21.45;;;;;;;;;;4948203;28;20031;-90
2022/09/12 09:56:14;;;;;;;;;;;;;;;;;;4916142;29;20050;-91
2022/09/12 09:58:40;;;;;;;38.08;21.55;;;;;;;;;;4933723;28;19910;-90
2022/09/12 10:01:13;;;;;;;41.33;20.77;;;;;;;;;;4914054;29;20045;-89
2022/09/12 10:03:40;;;;;;;39.75;21.23;;;;;;;;;;4949084;28;20045;-90
2022/09/12 10:06:07;;;;;;;40.15;20.38;;;;;;;;;;4916984;29;20525;-90
2022/09/12 10:08:37;;;;;;;39.13;21.02;;;;;;;;;;4926115;28;20024;-90
2022/09/12 10:11:05;;;;;;;36.33;20.70;;;;;;;;;;4930207;29;20035;-90
2022/09/12 10:13:36;;;;;;;41.78;21.90;;;;;;;;;;4943781;28;20051;-90
2022/09/12 10:16:04;;;;;;;36.22;21.63;;;;;;;;;;4942262;28;20386;-90
2022/09/12 10:18:38;;;;;;;41.22;22.70;;;;;;;;;;4931199;29;20035;-90
2022/09/12 10:21:14;;;;;;;39.75;20.80;;;;;;;;;;4949331;28;20394;-90
2022/09/12 10:23:40;;;;;;;34.92;20.40;;;;;;;;;;4934409;28;20035;-90
2022/09/12 10:26:10;;;;;;;43.03;22.90;;;;;;;;;;4934495;29;20027;-90
2022/09/12 10:28:44;;;;;;;40.78;21.60;;;;;;;;;;4926881;29;20031;-90
2022/09/12 10:31:14;;;;;;;43.72;21.80;;;;;;;;;;4949394;28;20104;-90
2022/09/12 10:33:43;;;;;;;43.38;23.02;;;;;;;;;;4947555;28;20066;-90
2022/09/12 10:36:09;;;;;;;40.33;19.50;;;;;;;;;;4928415;29;20045;-90
2022/09/12 10:38:35;;;;;;;39.42;21.70;;;;;;;;;;4935281;28;20035;-90
2022/09/12 10:41:06;;;;;;;39.60;19.02;;;;;;;;;;4937214;29;20110;-90
2022/09/12 10:43:36;;;;;;;55.25;21.08;;;;;;;;;;4933221;28;20395;-90
2022/09/12 10:46:14;;;;;;;40.67;18.20;;;;;;;;;;4931880;28;20056;-90
2022/09/12 10:48:41;;;;;;;27.75;14.55;;;;;;;;;;4928236;29;20031;-89
2022/09/12 10:51:14;;;;;;;27.92;14.77;;;;;;;;;;4927304;29;20688;-91
2022/09/12 10:53:41;;;;;;;28.77;13.38;;;;;;;;;;4909287;29;20064;-91
2022/09/12 10:56:29;;;;;;;32.90;15.18;;;;;;;;;;4928698;29;20416;-91
2022/09/12 10:59:14;;;;;;;26.10;11.85;;;;;;;;;;4929225;29;20153;-92
2022/09/12 11:01:40;;;;;;;34.38;14.68;;;;;;;;;;4930230;29;20103;-91
2022/09/12 11:04:25;;;;;;;24.17;14.10;;;;;;;;;;4926975;29;20028;-92
2022/09/12 11:07:00;;;;;;;26.83;13.45;;;;;;;;;;4946358;28;20059;-91
2022/09/12 11:09:26;;;;;;;27.00;12.77;;;;;;;;;;4924549;29;20024;-91
2022/09/12 11:11:58;;;;;;;23.20;12.63;;;;;;;;;;4945514;28;20042;-90
2022/09/12 11:14:31;;;;;;;17.17;10.27;;;;;;;;;;4930274;29;20087;-91
2022/09/12 11:16:57;;;;;;;28.48;15.85;;;;;;;;;;4944652;28;20075;-90
2022/09/12 11:19:42;;;;;;;30.35;15.27;;;;;;;;;;4928250;29;20645;-90
2022/09/12 11:22:08;;;;;;;28.33;15.73;;;;;;;;;;4945294;28;20070;-90
2022/09/12 11:24:52;;;;;;;32.80;16.67;;;;;;;;;;4928740;29;20115;-90
2022/09/12 11:27:27;;;;;;;23.30;12.73;;;;;;;;;;4929465;29;20028;-90
2022/09/12 11:30:03;;;;;;;31.52;15.95;;;;;;;;;;4926878;29;20036;-90
2022/09/12 11:32:29;;;;;;;28.17;13.48;;;;;;;;;;4925670;29;20579;-90
2022/09/12 11:34:58;;;;;;;29.58;15.40;;;;;;;;;;4931569;29;20036;-90
2022/09/12 11:37:43;;;;;;;30.88;16.45;;;;;;;;;;4926067;29;20225;-90
2022/09/12 11:40:29;;;;;;;30.05;15.90;;;;;;;;;;4928447;29;20506;-90
2022/09/12 11:43:05;;;;;;;27.80;15.65;;;;;;;;;;4927430;29;20425;-91
2022/09/12 11:45:39;;;;;;;32.05;14.23;;;;;;;;;;4928442;28;20055;-90
2022/09/12 11:48:07;;;;;;;21.75;12.05;;;;;;;;;;4909210;29;20127;-90
2022/09/12 11:50:33;;;;;;;22.65;12.45;;;;;;;;;;4910585;29;20540;-90
2022/09/12 11:53:02;;;;;;;23.23;12.68;;;;;;;;;;4909334;29;20072;-91
2022/09/12 11:55:30;;;;;;;18.92;11.75;;;;;;;;;;4909291;29;20027;-90
2022/09/12 11:57:57;;;;;;;23.20;13.52;;;;;;;;;;4905076;29;20900;-90
2022/09/12 12:00:59;;;;;;;22.23;12.18;;;;;;;;;;4926450;29;20055;-90
2022/09/12 12:03:30;;;;;;;19.40;10.80;;;;;;;;;;4888764;29;20524;-90
2022/09/12 12:05:56;;;;;;;18.13;9.20;;;;;;;;;;4911908;29;20031;-90
2022/09/12 12:08:23;;;;;;;14.77;8.95;;;;;;;;;;4912713;29;20555;-90
2022/09/12 12:10:55;;;;;;;16.55;10.07;;;;;;;;;;4925654;29;20467;-90
2022/09/12 12:13:35;;;;;;;15.43;10.02;;;;;;;;;;4931615;29;20032;-90
2022/09/12 12:16:04;;;;;;;17.67;8.93;;;;;;;;;;4933384;29;20047;-90
2022/09/12 12:18:31;;;;;;;25.42;12.05;;;;;;;;;;4923221;29;20063;-90
2022/09/12 12:21:17;;;;;;;17.67;9.98;;;;;;;;;;4912443;29;20043;-90
2022/09/12 12:24:01;;;;;;;14.77;9.07;;;;;;;;;;4926712;29;20055;-90
2022/09/12 12:26:40;;;;;;;19.55;8.88;;;;;;;;;;4924001;29;20128;-90
2022/09/12 12:29:10;;;;;;;15.35;7.57;;;;;;;;;;4924988;29;20035;-90
2022/09/12 12:31:55;;;;;;;15.18;7.57;;;;;;;;;;4931031;29;20031;-90
2022/09/12 12:34:26;;;;;;;14.88;8.57;;;;;;;;;;4908793;29;20035;-90
2022/09/12 12:36:52;;;;;;;20.15;8.27;;;;;;;;;;4916487;29;20148;-90
2022/09/12 12:39:33;;;;;;;20.52;9.90;;;;;;;;;;4903192;29;20122;-89
2022/09/12 12:41:59;;;;;;;13.88;8.43;;;;;;;;;;4908603;29;20138;-89
2022/09/12 12:44:58;;;;;;;13.02;8.40;;;;;;;;;;4910600;29;20361;-92
2022/09/12 12:47:31;;;;;;;10.80;6.97;;;;;;;;;;4860850;29;20206;-90
2022/09/12 12:50:00;;;;;;;10.50;5.95;;;;;;;;;;4906570;29;20044;-90
2022/09/12 12:52:29;;;;;;;9.00;5.20;;;;;;;;;;4895385;29;20037;-90
2022/09/12 12:54:57;;;;;;;16.58;7.10;;;;;;;;;;4893604;29;20106;-89
2022/09/12 12:57:23;;;;;;;12.80;6.93;;;;;;;;;;4888975;29;20078;-90
2022/09/12 12:59:53;;;;;;;20.38;6.68;;;;;;;;;;4903453;29;20056;-90
2022/09/12 13:02:21;;;;;;;15.00;7.20;;;;;;;;;;4891612;29;20078;-90
2022/09/12 13:04:49;;;;;;;12.13;6.90;;;;;;;;;;4911349;29;20036;-90
2022/09/12 13:07:23;;;;;;;14.63;6.43;;;;;;;;;;4892320;29;20028;-90
2022/09/12 13:09:54;;;;;;;7.82;5.75;;;;;;;;;;4912927;29;20457;-90
2022/09/12 13:12:24;;;;;;;6.45;4.53;;;;;;;;;;4893073;29;20480;-90
2022/09/12 13:14:50;;;;;;;5.70;3.72;;;;;;;;;;4912099;29;20050;-90
2022/09/12 13:17:37;;;;;;;6.88;3.72;;;;;;;;;;4892387;29;20032;-90
2022/09/12 13:20:14;;;;;;;8.98;4.93;;;;;;;;;;4894689;29;20508;-90
2022/09/12 13:22:45;;;;;;;8.32;4.47;;;;;;;;;;4907910;29;20557;-89
2022/09/12 13:25:29;;;;;;;10.20;4.32;;;;;;;;;;4894995;29;20101;-90
2022/09/12 13:28:00;;;;;;;6.65;4.72;;;;;;;;;;4906955;29;20386;-90
2022/09/12 13:30:27;;;;;;;6.63;4.80;;;;;;;;;;4891727;29;20043;-90
2022/09/12 13:32:53;;;;;;;9.05;6.20;;;;;;;;;;4906348;29;20033;-90
2022/09/12 13:35:27;;;;;;;9.98;6.22;;;;;;;;;;4877029;29;20770;-90
2022/09/12 13:38:06;;;;;;;9.60;5.32;;;;;;;;;;4902914;29;20052;-90
2022/09/12 13:40:43;;;;;;;11.85;6.22;;;;;;;;;;4908006;29;20043;-90
2022/09/12 13:43:17;;;;;;;9.18;6.20;;;;;;;;;;4895380;29;20028;-90
2022/09/12 13:45:46;;;;;;;9.05;5.22;;;;;;;;;;4918879;28;20054;-89
2022/09/12 13:48:24;;;;;;;10.88;5.97;;;;;;;;;;4912316;29;20555;-90
2022/09/12 13:50:56;;;;;;;7.65;5.10;;;;;;;;;;4913524;29;20098;-89
2022/09/12 13:53:24;;;;;;;8.68;4.97;;;;;;;;;;4911266;29;20285;-89
2022/09/12 13:55:53;;;;;;;12.85;6.55;;;;;;;;;;4930109;29;20534;-89
2022/09/12 13:58:19;;;;;;;14.82;6.93;;;;;;;;;;4909246;29;20036;-89
2022/09/12 14:00:46;;;;;;;11.70;7.13;;;;;;;;;;4913310;29;20043;-89
2022/09/12 14:06:09;;;;;;;8.52;4.93;;;;;;;;;;4926067;29;20050;-88
2022/09/12 14:08:39;;;;;;;7.22;5.18;;;;;;;;;;4912245;29;20043;-89
2022/09/12 14:11:08;;;;;;;13.15;5.80;;;;;;;;;;4914133;29;20142;-88
2022/09/12 14:13:41;;;;;;;8.35;5.82;;;;;;;;;;4910056;29;20038;-89
2022/09/12 14:16:11;;;;;;;10.93;5.93;;;;;;;;;;4923511;29;20039;-88
2022/09/12 14:18:39;;;;;;;10.75;5.53;;;;;;;;;;4926856;29;20412;-88
2022/09/12 14:21:09;;;;;;;8.85;5.15;;;;;;;;;;4916543;29;20023;-88
2022/09/12 14:23:41;;;;;;;7.90;4.60;;;;;;;;;;4912414;29;20046;-89
2022/09/12 14:26:11;;;;;;;10.10;4.38;;;;;;;;;;4904189;29;20391;-89
2022/09/12 14:28:39;;;;;;;8.18;5.20;;;;;;;;;;4909212;29;20128;-88
2022/09/12 14:31:05;;;;;;;9.68;4.78;;;;;;;;;;4913705;29;20352;-88
2022/09/12 14:33:33;;;;;;;7.18;5.05;;;;;;;;;;4913413;29;20032;-88
2022/09/12 14:36:09;;;;;;;11.63;5.80;;;;;;;;;;4911049;29;20031;-88
2022/09/12 14:38:46;;;;;;;9.57;5.38;;;;;;;;;;4911018;29;20480;-89
2022/09/12 14:41:13;;;;;;;11.13;7.47;;;;;;;;;;4928828;29;20030;-88